createdAt,value
2019-02-12T00:02:07.883Z,103145.81
2019-02-12T00:04:34.970Z,103145.95
2019-02-12T00:07:03.257Z,103155.27
2019-02-12T00:09:30.330Z,103153.20
2019-02-12T00:11:57.447Z,103158.63
2019-02-12T00:14:24.574Z,103153.83
2019-02-12T00:16:51.688Z,103155.73
2019-02-12T00:19:18.863Z,103158.19
2019-02-12T00:21:46.169Z,103161.77
2019-02-12T00:24:13.565Z,103167.64
2019-02-12T00:26:40.644Z,103176.33
2019-02-12T00:29:07.931Z,103171.22
2019-02-12T00:31:35.018Z,103168.94
2019-02-12T00:34:02.077Z,103177.86
2019-02-12T00:36:29.162Z,103184.41
2019-02-12T00:38:56.202Z,103182.05
2019-02-12T00:41:23.333Z,103183.80
2019-02-12T00:43:50.428Z,103179.30
2019-02-12T00:46:17.482Z,103188.67
2019-02-12T00:48:44.663Z,103193.70
2019-02-12T00:51:17.583Z,103197.51
2019-02-12T00:53:40.799Z,103193.78
2019-02-12T00:56:07.925Z,103206.44
2019-02-12T00:58:35.047Z,103210.62
2019-02-12T01:01:02.083Z,103206.80
2019-02-12T01:03:29.147Z,103197.96
2019-02-12T01:05:56.414Z,103207.03
2019-02-12T01:08:23.469Z,103217.69
2019-02-12T01:10:50.593Z,103209.22
2019-02-12T01:13:18.943Z,103208.91
2019-02-12T01:15:46.100Z,103210.12
2019-02-12T01:18:13.207Z,103204.54
2019-02-12T01:20:40.249Z,103200.97
2019-02-12T01:23:07.313Z,103207.38
2019-02-12T01:25:34.416Z,103205.86
2019-02-12T01:28:01.466Z,103206.70
2019-02-12T01:30:28.520Z,103204.73
2019-02-12T01:32:55.701Z,103202.61
2019-02-12T01:35:22.821Z,103202.98
2019-02-12T01:37:49.902Z,103197.73
2019-02-12T01:40:17.001Z,103196.52
2019-02-12T01:42:44.187Z,103202.77
2019-02-12T01:45:12.229Z,103198.59
2019-02-12T01:47:39.311Z,103198.73
2019-02-12T01:50:07.960Z,103201.17
2019-02-12T01:52:35.059Z,103196.37
2019-02-12T01:55:02.145Z,103204.22
2019-02-12T01:57:29.185Z,103203.91
2019-02-12T01:59:56.259Z,103207.11
2019-02-12T02:02:23.338Z,103207.56
2019-02-12T02:04:50.396Z,103206.27
2019-02-12T02:07:17.493Z,103205.95
2019-02-12T02:09:44.542Z,103197.79
2019-02-12T02:12:11.611Z,103203.81
2019-02-12T02:14:38.690Z,103203.98
2019-02-12T02:17:05.787Z,103202.09
2019-02-12T02:19:32.835Z,103204.30
2019-02-12T02:21:59.929Z,103213.89
2019-02-12T02:24:26.983Z,103220.69
2019-02-12T02:26:54.148Z,103212.84
2019-02-12T02:29:21.273Z,103210.78
2019-02-12T02:31:48.328Z,103211.16
2019-02-12T02:34:15.382Z,103209.18
2019-02-12T02:36:42.579Z,103208.80
2019-02-12T02:39:09.628Z,103209.86
2019-02-12T02:41:36.717Z,103215.97
2019-02-12T02:44:05.576Z,103216.34
2019-02-12T02:46:32.645Z,103217.64
2019-02-12T02:48:59.745Z,103218.33
2019-02-12T02:51:26.860Z,103221.91
2019-02-12T02:53:53.968Z,103220.54
2019-02-12T02:56:21.018Z,103221.30
2019-02-12T02:58:48.100Z,103221.83
2019-02-12T03:01:15.166Z,103228.70
2019-02-12T03:03:42.243Z,103232.43
2019-02-12T03:06:09.282Z,103227.24
2019-02-12T03:08:36.392Z,103227.09
2019-02-12T03:11:03.484Z,103223.96
2019-02-12T03:13:30.524Z,103226.94
2019-02-12T03:15:57.572Z,103233.17
2019-02-12T03:18:24.653Z,103225.39
2019-02-12T03:20:51.716Z,103231.39
2019-02-12T03:23:18.803Z,103231.47
2019-02-12T03:25:45.864Z,103224.05
2019-02-12T03:28:12.947Z,103229.36
2019-02-12T03:30:40.122Z,103224.62
2019-02-12T03:33:08.631Z,103226.99
2019-02-12T03:35:35.696Z,103225.70
2019-02-12T03:38:02.812Z,103227.53
2019-02-12T03:41:15.323Z,103231.48
2019-02-12T03:43:42.417Z,103230.09
2019-02-12T03:46:09.483Z,103228.55
2019-02-12T03:48:36.586Z,103230.82
2019-02-12T03:51:03.654Z,103232.34
2019-02-12T03:53:32.513Z,103236.22
2019-02-12T03:55:59.573Z,103235.90
2019-02-12T03:58:26.665Z,103240.26
2019-02-12T04:00:53.762Z,103239.28
2019-02-12T04:03:20.846Z,103240.89
2019-02-12T04:05:47.950Z,103240.52
2019-02-12T04:08:15.138Z,103237.55
2019-02-12T04:10:42.228Z,103244.27
2019-02-12T04:13:09.717Z,103249.23
2019-02-12T04:15:37.003Z,103249.32
2019-02-12T04:18:04.096Z,103254.88
2019-02-12T04:20:31.139Z,103261.80
2019-02-12T04:22:58.207Z,103259.52
2019-02-12T04:25:25.455Z,103256.11
2019-02-12T04:27:52.490Z,103258.26
2019-02-12T04:30:19.531Z,103259.77
2019-02-12T04:32:48.427Z,103258.41
2019-02-12T04:35:16.678Z,103257.20
2019-02-12T04:37:43.788Z,103253.95
2019-02-12T04:40:11.040Z,103253.58
2019-02-12T04:42:38.102Z,103253.19
2019-02-12T04:45:06.354Z,103251.14
2019-02-12T04:47:33.555Z,103241.59
2019-02-12T04:50:00.611Z,103244.19
2019-02-12T04:52:31.888Z,103240.69
2019-02-12T04:54:56.670Z,103250.60
2019-02-12T04:57:23.932Z,103246.87
2019-02-12T04:59:50.966Z,103244.73
2019-02-12T05:02:18.264Z,103252.12
2019-02-12T05:04:45.271Z,103241.98
2019-02-12T05:07:12.327Z,103244.73
2019-02-12T05:09:41.537Z,103251.81
2019-02-12T05:12:08.595Z,103248.91
2019-02-12T05:14:35.677Z,103247.61
2019-02-12T05:17:02.980Z,103245.31
2019-02-12T05:19:30.020Z,103253.08
2019-02-12T05:21:57.104Z,103257.09
2019-02-12T05:24:24.229Z,103252.52
2019-02-12T05:26:51.374Z,103256.30
2019-02-12T05:29:18.582Z,103257.13
2019-02-12T05:31:45.721Z,103252.38
2019-02-12T05:34:12.812Z,103260.59
2019-02-12T05:36:39.885Z,103262.48
2019-02-12T05:39:07.808Z,103261.72
2019-02-12T05:41:34.879Z,103265.67
2019-02-12T05:44:01.938Z,103262.33
2019-02-12T05:46:29.035Z,103267.19
2019-02-12T05:48:56.139Z,103269.77
2019-02-12T05:51:23.233Z,103265.83
2019-02-12T05:53:50.426Z,103266.91
2019-02-12T05:56:17.605Z,103265.23
2019-02-12T05:58:44.662Z,103266.84
2019-02-12T06:01:11.721Z,103265.48
2019-02-12T06:03:38.866Z,103270.23
2019-02-12T06:06:06.028Z,103272.59
2019-02-12T06:08:33.094Z,103267.04
2019-02-12T06:11:00.209Z,103270.86
2019-02-12T06:13:27.302Z,103267.52
2019-02-12T06:15:54.833Z,103269.50
2019-02-12T06:18:21.887Z,103270.03
2019-02-12T06:20:49.006Z,103265.62
2019-02-12T06:23:16.087Z,103271.55
2019-02-12T06:25:43.196Z,103272.62
2019-02-12T06:28:10.274Z,103272.56
2019-02-12T06:30:37.357Z,103266.25
2019-02-12T06:33:07.612Z,103271.74
2019-02-12T06:35:33.439Z,103269.16
2019-02-12T06:38:00.490Z,103272.88
2019-02-12T06:40:27.779Z,103261.92
2019-02-12T06:42:54.890Z,103276.39
2019-02-12T06:45:22.012Z,103271.90
2019-02-12T06:47:49.126Z,103269.72
2019-02-12T06:50:16.191Z,103267.98
2019-02-12T06:52:43.723Z,103268.98
2019-02-12T06:55:11.781Z,103278.30
2019-02-12T06:57:39.674Z,103275.32
2019-02-12T07:00:07.754Z,103280.28
2019-02-12T07:03:09.258Z,103273.05
2019-02-12T07:05:37.123Z,103287.07
2019-02-12T07:08:38.780Z,103292.79
2019-02-12T07:11:16.902Z,103287.38
2019-02-12T07:14:15.819Z,103295.84
2019-02-12T07:17:15.967Z,103301.72
2019-02-12T07:20:06.171Z,103301.20
2019-02-12T07:23:21.193Z,103306.39
2019-02-12T07:26:45.859Z,103310.59
2019-02-12T07:29:26.304Z,103316.62
2019-02-12T07:32:44.068Z,103319.37
2019-02-12T07:36:00.930Z,103323.50
2019-02-12T07:38:49.359Z,103339.29
2019-02-12T07:41:58.160Z,103337.55
2019-02-12T07:44:50.931Z,103343.92
2019-02-12T07:47:54.909Z,103355.45
2019-02-12T07:50:54.336Z,103361.70
2019-02-12T07:54:31.095Z,103365.22
2019-02-12T07:57:32.668Z,103380.11
2019-02-12T08:00:40.768Z,103381.11
2019-02-12T08:03:48.040Z,103384.39
2019-02-12T08:06:52.897Z,103385.77
2019-02-12T08:10:05.422Z,103391.64
2019-02-12T08:13:15.117Z,103387.21
2019-02-12T08:16:16.424Z,103393.92
2019-02-12T08:19:37.582Z,103392.93
2019-02-12T08:22:51.901Z,103399.19
2019-02-12T08:25:34.315Z,103398.35
2019-02-12T08:28:45.217Z,103400.02
2019-02-12T08:31:51.278Z,103412.39
2019-02-12T08:34:56.133Z,103409.94
2019-02-12T08:37:56.775Z,103411.23
2019-02-12T08:41:02.783Z,103413.75
2019-02-12T08:44:24.307Z,103408.63
2019-02-12T08:47:38.930Z,103415.56
2019-02-12T08:50:43.536Z,103417.78
2019-02-12T08:53:51.729Z,103419.46
2019-02-12T08:57:03.778Z,103426.41
2019-02-12T08:59:50.809Z,103428.69
2019-02-12T09:02:45.936Z,103426.30
2019-02-12T09:05:37.419Z,103420.57
2019-02-12T09:08:47.123Z,103417.84
2019-02-12T09:12:17.127Z,103422.80
2019-02-12T09:15:24.760Z,103426.61
2019-02-12T09:18:21.208Z,103416.21
2019-02-12T09:21:18.218Z,103424.08
2019-02-12T09:24:35.884Z,103417.19
2019-02-12T09:27:56.781Z,103419.55
2019-02-12T09:31:23.721Z,103422.69
2019-02-12T09:34:31.617Z,103429.63
2019-02-12T09:37:22.768Z,103427.47
2019-02-12T09:40:18.640Z,103438.45
2019-02-12T09:43:04.718Z,103435.38
2019-02-12T09:46:28.628Z,103435.53
2019-02-12T09:49:32.288Z,103428.02
2019-02-12T09:52:33.452Z,103428.02
2019-02-12T09:55:31.355Z,103436.70
2019-02-12T09:58:40.197Z,103436.55
2019-02-12T10:01:34.816Z,103446.30
2019-02-12T10:04:40.532Z,103438.16
2019-02-12T10:07:39.140Z,103441.19
2019-02-12T10:10:46.183Z,103441.48
2019-02-12T10:13:31.460Z,103429.53
2019-02-12T10:16:28.714Z,103429.77
2019-02-12T10:19:29.884Z,103438.02
2019-02-12T10:22:31.582Z,103437.14
2019-02-12T10:25:02.697Z,103445.19
2019-02-12T10:28:06.157Z,103449.66
2019-02-12T10:30:57.996Z,103454.48
2019-02-12T10:33:31.114Z,103462.23
2019-02-12T10:35:58.181Z,103462.38
2019-02-12T10:38:25.308Z,103474.92
2019-02-12T10:40:52.357Z,103475.88
2019-02-12T10:43:19.407Z,103474.08
2019-02-12T10:45:46.469Z,103470.01
2019-02-12T10:48:13.585Z,103464.30
2019-02-12T10:50:40.642Z,103458.25
2019-02-12T10:53:09.062Z,103459.48
2019-02-12T10:55:36.160Z,103453.53
2019-02-12T10:58:03.234Z,103455.50
2019-02-12T11:00:30.412Z,103459.61
2019-02-12T11:02:57.507Z,103454.02
2019-02-12T11:05:24.551Z,103458.72
2019-02-12T11:07:51.613Z,103454.42
2019-02-12T11:10:18.734Z,103459.64
2019-02-12T11:12:45.773Z,103458.09
2019-02-12T11:15:13.013Z,103453.95
2019-02-12T11:17:40.107Z,103451.88
2019-02-12T11:20:07.238Z,103450.62
2019-02-12T11:22:34.269Z,103452.92
2019-02-12T11:25:01.417Z,103440.98
2019-02-12T11:27:48.108Z,103440.48
2019-02-12T11:30:15.358Z,103440.25
2019-02-12T11:32:42.422Z,103441.42
2019-02-12T11:35:09.594Z,103440.36
2019-02-12T11:37:36.685Z,103442.35
2019-02-12T11:40:04.552Z,103439.74
2019-02-12T11:42:31.629Z,103439.89
2019-02-12T11:44:58.737Z,103437.20
2019-02-12T11:47:25.821Z,103448.17
2019-02-12T11:49:52.887Z,103437.50
2019-02-12T11:52:20.023Z,103432.46
2019-02-12T11:54:47.750Z,103432.48
2019-02-12T11:57:15.921Z,103428.17
2019-02-12T11:59:43.230Z,103433.26
2019-02-12T12:02:10.283Z,103433.92
2019-02-12T12:04:37.344Z,103428.70
2019-02-12T12:07:04.536Z,103423.08
2019-02-12T12:09:31.708Z,103425.44
2019-02-12T12:11:58.796Z,103429.48
2019-02-12T12:14:25.891Z,103427.78
2019-02-12T12:16:52.991Z,103425.69
2019-02-12T12:19:20.049Z,103419.67
2019-02-12T12:21:47.217Z,103419.30
2019-02-12T12:24:14.401Z,103416.39
2019-02-12T12:26:41.448Z,103411.27
2019-02-12T12:29:08.534Z,103416.50
2019-02-12T12:31:35.624Z,103415.44
2019-02-12T12:34:02.759Z,103408.48
2019-02-12T12:36:29.848Z,103410.83
2019-02-12T12:38:56.945Z,103402.95
2019-02-12T12:41:24.003Z,103390.13
2019-02-12T12:43:51.059Z,103391.92
2019-02-12T12:46:18.181Z,103382.47
2019-02-12T12:48:45.253Z,103392.45
2019-02-12T12:51:12.332Z,103389.55
2019-02-12T12:53:39.422Z,103387.41
2019-02-12T12:56:06.502Z,103383.72
2019-02-12T12:58:33.570Z,103384.05
2019-02-12T13:01:00.935Z,103385.42
2019-02-12T13:03:28.297Z,103379.88
2019-02-12T13:05:55.438Z,103380.44
2019-02-12T13:08:22.676Z,103373.30
2019-02-12T13:10:57.239Z,103374.72
2019-02-12T13:13:24.602Z,103368.14
2019-02-12T13:15:51.664Z,103373.85
2019-02-12T13:18:18.870Z,103361.14
2019-02-12T13:20:45.987Z,103372.31
2019-02-12T13:23:13.049Z,103366.91
2019-02-12T13:25:40.093Z,103357.02
2019-02-12T13:28:07.488Z,103356.92
2019-02-12T13:30:34.723Z,103356.66
2019-02-12T13:33:01.768Z,103358.42
2019-02-12T13:35:28.863Z,103359.86
2019-02-12T13:37:55.923Z,103353.25
2019-02-12T13:40:22.982Z,103360.84
2019-02-12T13:42:50.055Z,103361.11
2019-02-12T13:45:17.128Z,103358.72
2019-02-12T13:47:45.360Z,103358.36
2019-02-12T13:50:12.544Z,103364.09
2019-02-12T13:52:39.606Z,103358.55
2019-02-12T13:55:06.789Z,103361.45
2019-02-12T13:57:34.009Z,103369.06
2019-02-12T14:00:01.083Z,103361.98
2019-02-12T14:02:28.160Z,103362.73
2019-02-12T14:04:55.257Z,103366.53
2019-02-12T14:07:22.342Z,103360.53
2019-02-12T14:09:49.471Z,103362.06
2019-02-12T14:12:16.562Z,103366.98
2019-02-12T14:14:45.759Z,103368.77
2019-02-12T14:17:12.835Z,103374.95
2019-02-12T14:19:39.929Z,103376.03
2019-02-12T14:22:06.981Z,103374.38
2019-02-12T14:24:34.021Z,103372.59
2019-02-12T14:27:01.126Z,103382.05
2019-02-12T14:29:28.193Z,103379.44
2019-02-12T14:31:55.277Z,103387.70
2019-02-12T14:34:22.392Z,103387.08
2019-02-12T14:36:49.462Z,103384.17
2019-02-12T14:39:16.520Z,103383.42
2019-02-12T14:41:43.625Z,103383.42
2019-02-12T14:44:10.695Z,103384.69
2019-02-12T14:46:43.282Z,103379.55
2019-02-12T14:49:10.389Z,103381.59
2019-02-12T14:51:37.453Z,103372.37
2019-02-12T14:54:26.181Z,103368.41
2019-02-12T14:56:53.269Z,103372.45
2019-02-12T14:59:22.407Z,103366.66
2019-02-12T15:01:49.653Z,103368.70
2019-02-12T15:04:17.518Z,103375.77
2019-02-12T15:06:44.671Z,103377.16
2019-02-12T15:09:12.887Z,103378.77
2019-02-12T15:11:40.065Z,103383.93
2019-02-12T15:14:07.170Z,103385.70
2019-02-12T15:16:34.232Z,103393.31
2019-02-12T15:19:01.319Z,103388.16
2019-02-12T15:21:28.413Z,103379.44
2019-02-12T15:23:55.590Z,103375.56
2019-02-12T15:26:22.662Z,103370.31
2019-02-12T15:28:51.086Z,103375.50
2019-02-12T15:31:18.282Z,103371.00
2019-02-12T15:33:45.348Z,103366.44
2019-02-12T15:36:12.560Z,103365.92
2019-02-12T15:38:39.618Z,103370.31
2019-02-12T15:41:06.740Z,103371.30
2019-02-12T15:43:33.867Z,103376.23
2019-02-12T15:46:00.935Z,103377.08
2019-02-12T15:48:28.058Z,103377.01
2019-02-12T15:50:55.191Z,103376.38
2019-02-12T15:53:22.398Z,103379.55
2019-02-12T15:55:51.294Z,103378.97
2019-02-12T15:58:18.520Z,103383.14
2019-02-12T16:00:45.592Z,103387.94
2019-02-12T16:03:12.672Z,103395.03
2019-02-12T16:05:39.827Z,103391.63
2019-02-12T16:08:08.885Z,103393.80
2019-02-12T16:10:37.516Z,103403.13
2019-02-12T16:13:05.066Z,103402.89
2019-02-12T16:15:32.153Z,103403.31
2019-02-12T16:18:00.221Z,103399.23
2019-02-12T16:20:29.087Z,103394.67
2019-02-12T16:22:57.670Z,103381.86
2019-02-12T16:25:24.796Z,103388.44
2019-02-12T16:27:51.899Z,103381.80
2019-02-12T16:30:19.011Z,103384.97
2019-02-12T16:32:46.166Z,103385.33
2019-02-12T16:35:13.986Z,103382.72
2019-02-12T16:37:41.106Z,103384.03
2019-02-12T16:40:09.150Z,103388.89
2019-02-12T16:42:36.262Z,103386.83
2019-02-12T16:45:04.078Z,103384.33
2019-02-12T16:47:31.218Z,103387.25
2019-02-12T16:49:59.665Z,103390.08
2019-02-12T16:52:26.947Z,103396.64
2019-02-12T16:54:54.079Z,103401.74
2019-02-12T16:57:21.320Z,103397.45
2019-02-12T16:59:48.394Z,103400.33
2019-02-12T17:02:15.479Z,103404.80
2019-02-12T17:04:42.571Z,103404.58
2019-02-12T17:07:10.589Z,103404.98
2019-02-12T17:09:37.751Z,103406.18
2019-02-12T17:12:04.782Z,103414.83
2019-02-12T17:14:32.189Z,103422.93
2019-02-12T17:16:59.260Z,103422.03
2019-02-12T17:19:26.379Z,103430.02
2019-02-12T17:21:53.515Z,103433.02
2019-02-12T17:24:20.635Z,103440.05
2019-02-12T17:26:47.724Z,103437.05
2019-02-12T17:29:14.804Z,103442.53
2019-02-12T17:31:41.870Z,103438.09
2019-02-12T17:34:09.135Z,103434.19
2019-02-12T17:36:36.194Z,103441.36
2019-02-12T17:39:05.020Z,103443.59
2019-02-12T17:41:32.113Z,103441.23
2019-02-12T17:43:59.178Z,103439.67
2019-02-12T17:46:26.318Z,103446.20
2019-02-12T17:48:53.885Z,103435.36
2019-02-12T17:51:20.990Z,103439.00
2019-02-12T17:53:48.103Z,103437.57
2019-02-12T17:56:15.233Z,103435.48
2019-02-12T17:58:42.309Z,103438.86
2019-02-12T18:01:12.402Z,103434.42
2019-02-12T18:03:39.567Z,103439.63
2019-02-12T18:06:06.732Z,103445.06
2019-02-12T18:08:33.927Z,103453.78
2019-02-12T18:11:01.268Z,103449.45
2019-02-12T18:13:31.217Z,103445.91
2019-02-12T18:15:58.296Z,103452.41
2019-02-12T18:18:25.630Z,103455.16
2019-02-12T18:20:52.724Z,103451.50
2019-02-12T18:23:19.820Z,103450.45
2019-02-12T18:25:46.963Z,103458.78
2019-02-12T18:28:14.094Z,103456.67
2019-02-12T18:30:41.150Z,103455.34
2019-02-12T18:33:08.250Z,103457.55
2019-02-12T18:35:35.342Z,103464.84
2019-02-12T18:38:04.436Z,103469.67
2019-02-12T18:40:31.575Z,103465.34
2019-02-12T18:42:58.765Z,103464.55
2019-02-12T18:45:25.864Z,103463.63
2019-02-12T18:47:52.988Z,103453.98
2019-02-12T18:53:52.260Z,103453.95
2019-02-12T18:56:19.425Z,103448.72
2019-02-12T18:58:48.297Z,103456.12
2019-02-12T19:01:15.512Z,103450.91
2019-02-12T19:03:42.647Z,103447.91
2019-02-12T19:06:09.828Z,103454.48
2019-02-12T19:08:36.985Z,103462.55
2019-02-12T19:11:04.169Z,103456.00
2019-02-12T19:13:31.388Z,103460.41
2019-02-12T19:15:58.615Z,103457.03
2019-02-12T19:18:26.547Z,103463.69
2019-02-12T19:20:53.839Z,103459.89
2019-02-12T19:23:20.998Z,103458.36
2019-02-12T19:30:24.643Z,103453.70
2019-02-12T19:32:51.780Z,103461.80
2019-02-12T19:35:18.842Z,103466.48
2019-02-12T19:37:46.011Z,103465.96
2019-02-12T19:40:13.264Z,103467.52
2019-02-12T19:42:40.364Z,103467.35
2019-02-12T19:45:08.266Z,103473.84
2019-02-12T19:47:35.332Z,103479.93
2019-02-12T19:50:02.530Z,103482.09
2019-02-12T19:52:29.656Z,103481.28
2019-02-12T19:54:56.767Z,103477.48
2019-02-12T19:57:23.895Z,103466.59
2019-02-12T19:59:50.996Z,103469.97
2019-02-12T20:02:18.086Z,103474.27
2019-02-12T20:04:45.286Z,103473.14
2019-02-12T20:07:12.458Z,103474.22
2019-02-12T20:09:39.653Z,103477.00
2019-02-12T20:12:06.727Z,103475.59
2019-02-12T20:14:34.042Z,103467.52
2019-02-12T20:17:01.152Z,103459.97
2019-02-12T20:19:29.606Z,103469.48
2019-02-12T20:21:56.722Z,103459.97
2019-02-12T20:24:23.781Z,103466.52
2019-02-12T20:26:51.020Z,103465.89
2019-02-12T20:29:18.143Z,103470.06
2019-02-12T20:31:45.190Z,103478.52
2019-02-12T20:34:12.367Z,103484.54
2019-02-12T20:36:39.712Z,103481.66
2019-02-12T20:39:06.769Z,103478.50
2019-02-12T20:41:33.880Z,103482.68
2019-02-12T20:44:01.081Z,103481.91
2019-02-12T20:47:21.666Z,103483.48
2019-02-12T20:49:48.802Z,103483.98
2019-02-12T20:52:15.920Z,103476.72
2019-02-12T20:54:45.859Z,103479.48
2019-02-12T20:57:14.918Z,103484.27
2019-02-12T20:59:41.945Z,103471.22
2019-02-12T21:02:09.016Z,103469.53
2019-02-12T21:04:36.227Z,103473.70
2019-02-12T21:07:03.256Z,103468.73
2019-02-12T21:09:30.303Z,103472.25
2019-02-12T21:11:57.442Z,103476.67
2019-02-12T21:14:24.608Z,103475.80
2019-02-12T21:16:51.842Z,103484.95
2019-02-12T21:19:55.907Z,103484.33
2019-02-12T21:22:23.000Z,103481.31
2019-02-12T21:24:50.086Z,103480.48
2019-02-12T21:27:23.147Z,103479.19
2019-02-12T21:29:47.971Z,103486.63
2019-02-12T21:32:15.095Z,103492.75
2019-02-12T21:34:48.255Z,103490.67
2019-02-12T21:37:15.320Z,103492.75
2019-02-12T21:39:42.432Z,103495.52
2019-02-12T21:42:09.528Z,103496.33
2019-02-12T21:44:36.664Z,103498.67
2019-02-12T21:47:03.734Z,103499.34
2019-02-12T21:49:48.464Z,103507.30
2019-02-12T21:52:15.520Z,103508.59
2019-02-12T21:54:42.603Z,103497.48
2019-02-12T21:57:09.684Z,103495.50
2019-02-12T21:59:36.770Z,103503.45
2019-02-12T22:02:03.916Z,103500.69
2019-02-12T22:04:31.122Z,103510.31
2019-02-12T22:06:58.211Z,103507.70
2019-02-12T22:09:25.357Z,103526.70
2019-02-12T22:11:53.550Z,103531.41
2019-02-12T22:14:20.711Z,103547.84
2019-02-12T22:16:47.767Z,103544.49
2019-02-12T22:19:15.036Z,103539.67
2019-02-12T22:21:42.089Z,103534.14
2019-02-12T22:24:09.326Z,103528.64
2019-02-12T22:26:36.547Z,103530.30
2019-02-12T22:29:03.674Z,103526.39
2019-02-12T22:31:30.749Z,103530.44
2019-02-12T22:34:17.162Z,103530.26
2019-02-12T22:36:44.224Z,103514.87
2019-02-12T22:39:11.413Z,103517.05
2019-02-12T22:41:38.534Z,103516.80
2019-02-12T22:44:06.034Z,103511.56
2019-02-12T22:46:33.155Z,103516.48
2019-02-12T22:49:00.382Z,103523.73
2019-02-12T22:51:27.469Z,103515.59
2019-02-12T22:53:54.569Z,103513.67
2019-02-12T22:56:21.652Z,103524.70
2019-02-12T22:58:48.753Z,103530.60
2019-02-12T23:01:16.563Z,103534.55
2019-02-12T23:03:43.666Z,103536.24
2019-02-12T23:06:10.782Z,103541.16
2019-02-12T23:08:37.829Z,103544.44
2019-02-12T23:11:05.061Z,103553.03
2019-02-12T23:13:32.766Z,103543.77
2019-02-12T23:16:07.291Z,103541.27
2019-02-12T23:18:34.350Z,103539.67
2019-02-12T23:21:01.430Z,103528.58
2019-02-12T23:23:28.497Z,103537.59
2019-02-12T23:25:55.623Z,103537.55
2019-02-12T23:28:22.696Z,103537.84
2019-02-12T23:30:49.809Z,103539.91
2019-02-12T23:33:17.070Z,103541.84
2019-02-12T23:35:44.147Z,103543.00
2019-02-12T23:38:11.237Z,103541.41
2019-02-12T23:40:38.558Z,103541.12
2019-02-12T23:43:05.658Z,103541.21
2019-02-12T23:45:32.809Z,103547.58
2019-02-12T23:47:59.865Z,103558.23
2019-02-12T23:50:26.970Z,103562.23
2019-02-12T23:53:11.428Z,103570.42
2019-02-12T23:55:38.504Z,103570.18
2019-02-12T23:58:06.248Z,103580.80
